Tobyhanna, Pennsylvania
Current Conditions -  °F | °C
As of 11:53 AM on Sunday 21 Dec 2014 (Local Time) from KMPO Reporting Station
Overcast Overcast  
Wind Chill: 18°   Ceiling: 1300
Heat Index: 26°   Visibility: 10mi
Dew Point: 19°   Wind: 8mph
Humidity: 75%   Direction: 300°WNW
Pressure: 30.23"   Gusts: NA
Location:  41.18°N, 75.42°W
Report Text: KMPO 211653Z AUTO 30007KT 10SM OVC013 M03/M07 A3023 RMK AO2 SLP263 T10331072
Loading
Personal Weather Stations






























Interactive Weather Map New forecast layout! Learn more

10-Day Weather Forecast

Advertisements
Track Severe Weather on mobile